Time;durP1;ratioP1;P1;durP2;ratioP2;P2;SDS_P1;SDS_P2;PMS_P1;PMS_P2;Temp;Humidity;BMP_temperature;BMP_pressure;BME280_temperature;BME280_humidity;BME280_pressure;Samples;Min_cycle;Max_cycle;Signal;HPM_P1;HPM_P2
2023/02/15 00:00:13;;;;;;;31.60;22.20;;;5.50;99.00;;;;;;6273648;28;20477;-64
2023/02/15 00:03:17;;;;;;;28.17;19.63;;;5.50;99.10;;;;;;6273409;28;20478;-64
2023/02/15 00:06:20;;;;;;;37.27;23.33;;;5.50;99.30;;;;;;6273814;28;20466;-65
2023/02/15 00:09:24;;;;;;;33.93;23.60;;;5.50;99.40;;;;;;6273893;28;20485;-65
2023/02/15 00:12:28;;;;;;;35.27;21.87;;;5.60;99.40;;;;;;6273391;28;20482;-64
2023/02/15 00:15:31;;;;;;;31.10;21.17;;;5.60;99.50;;;;;;6274515;28;20469;-64
2023/02/15 00:18:34;;;;;;;27.97;20.60;;;5.60;99.30;;;;;;6278084;28;20473;-64
2023/02/15 00:21:39;;;;;;;29.17;20.03;;;5.60;99.30;;;;;;6277919;28;20485;-64
2023/02/15 00:24:42;;;;;;;31.43;21.70;;;5.70;99.40;;;;;;6277725;28;20474;-64
2023/02/15 00:27:47;;;;;;;26.37;20.13;;;5.70;99.50;;;;;;6278171;28;20466;-64
2023/02/15 00:30:50;;;;;;;27.83;18.83;;;5.70;99.50;;;;;;6277513;28;21000;-64
2023/02/15 00:33:53;;;;;;;35.47;20.87;;;5.70;99.50;;;;;;6277981;28;20811;-65
2023/02/15 00:36:56;;;;;;;27.37;20.70;;;5.70;99.50;;;;;;6277858;28;20483;-64
2023/02/15 00:39:59;;;;;;;29.80;18.93;;;5.80;99.50;;;;;;6277582;28;20474;-64
2023/02/15 00:43:04;;;;;;;30.10;19.67;;;5.80;99.50;;;;;;6277736;28;21031;-64
2023/02/15 00:46:07;;;;;;;36.23;22.00;;;5.80;99.50;;;;;;6277578;28;20485;-64
2023/02/15 00:49:11;;;;;;;42.63;24.67;;;5.80;99.50;;;;;;6277457;28;20477;-64
2023/02/15 00:52:14;;;;;;;40.03;23.80;;;5.80;99.60;;;;;;6277199;28;20466;-64
2023/02/15 00:55:17;;;;;;;38.47;23.57;;;5.80;99.60;;;;;;6277422;28;20470;-65
2023/02/15 00:58:22;;;;;;;32.50;23.67;;;5.80;99.50;;;;;;6277144;28;21059;-64
2023/02/15 01:01:25;;;;;;;37.07;22.30;;;5.90;99.60;;;;;;6277626;28;20466;-64
2023/02/15 01:04:28;;;;;;;31.03;22.40;;;5.80;99.60;;;;;;6277219;28;20493;-64
2023/02/15 01:07:32;;;;;;;33.03;23.43;;;5.80;99.60;;;;;;6284611;28;20482;-64
2023/02/15 01:10:36;;;;;;;30.00;19.87;;;5.80;99.60;;;;;;6295697;28;20493;-64
2023/02/15 01:13:41;;;;;;;28.83;20.43;;;5.90;99.60;;;;;;6285390;28;20843;-64
2023/02/15 01:16:45;;;;;;;31.47;21.60;;;5.90;99.60;;;;;;6282194;28;20918;-64
2023/02/15 01:19:48;;;;;;;28.73;20.70;;;5.90;99.60;;;;;;6279913;28;20462;-64
2023/02/15 01:22:52;;;;;;;28.37;20.53;;;5.90;99.60;;;;;;6276741;28;20446;-64
2023/02/15 01:25:55;;;;;;;26.50;20.53;;;5.90;99.60;;;;;;6276479;28;20445;-64
2023/02/15 01:29:00;;;;;;;29.93;20.07;;;5.90;99.60;;;;;;6275687;28;20478;-65
2023/02/15 01:32:03;;;;;;;24.67;20.13;;;5.90;99.60;;;;;;6276344;28;20463;-65
2023/02/15 01:35:08;;;;;;;31.17;20.60;;;5.90;99.60;;;;;;6276243;28;20473;-64
2023/02/15 01:38:11;;;;;;;32.00;21.80;;;5.90;99.60;;;;;;6276353;28;20784;-65
2023/02/15 01:41:27;;;;;;;35.00;22.70;;;6.00;99.70;;;;;;6276746;28;20485;-64
2023/02/15 01:44:53;;;;;;;26.47;20.27;;;6.00;99.70;;;;;;6275993;28;21013;-64
2023/02/15 01:48:01;;;;;;;25.43;19.33;;;6.00;99.70;;;;;;6275962;28;20462;-64
2023/02/15 01:51:05;;;;;;;28.23;19.53;;;6.00;99.70;;;;;;6276081;28;20520;-64
2023/02/15 01:54:16;;;;;;;29.40;19.47;;;6.00;99.70;;;;;;6275842;28;20474;-64
2023/02/15 01:57:23;;;;;;;26.03;18.97;;;6.00;99.70;;;;;;6266543;28;20482;-65
2023/02/15 02:00:28;;;;;;;26.13;19.50;;;6.00;99.60;;;;;;6275592;28;20993;-64
2023/02/15 02:03:43;;;;;;;27.17;20.10;;;6.00;99.60;;;;;;6275470;28;20475;-64
2023/02/15 02:06:48;;;;;;;25.67;18.77;;;6.00;99.70;;;;;;6275541;28;20485;-64
2023/02/15 02:09:52;;;;;;;25.10;19.90;;;6.00;99.70;;;;;;6275595;28;20481;-64
2023/02/15 02:12:59;;;;;;;28.10;21.13;;;6.00;99.70;;;;;;6275558;28;20953;-65
2023/02/15 02:16:10;;;;;;;29.97;20.67;;;6.00;99.70;;;;;;6275264;28;20466;-64
2023/02/15 02:19:53;;;;;;;28.07;18.83;;;6.00;99.70;;;;;;6274788;28;20560;-64
2023/02/15 02:23:32;;;;;;;26.80;19.07;;;6.10;99.70;;;;;;6274975;28;20477;-64
2023/02/15 02:27:16;;;;;;;23.03;19.47;;;6.10;99.70;;;;;;6274893;28;20478;-65
2023/02/15 02:30:50;;;;;;;32.10;19.60;;;6.00;99.60;;;;;;6274426;28;20972;-64
2023/02/15 02:34:04;;;;;;;29.27;20.97;;;6.10;99.70;;;;;;6275178;28;20470;-64
2023/02/15 02:37:16;;;;;;;28.33;21.00;;;6.10;99.70;;;;;;6274699;28;20474;-64
2023/02/15 02:40:26;;;;;;;30.67;22.03;;;6.10;99.70;;;;;;6274464;28;20474;-64
2023/02/15 02:43:34;;;;;;;33.03;23.07;;;6.00;99.90;;;;;;6274761;28;20462;-64
2023/02/15 02:46:45;;;;;;;34.33;23.83;;;5.90;99.90;;;;;;6274840;28;20459;-65
2023/02/15 02:49:54;;;;;;;35.27;23.93;;;5.90;99.90;;;;;;6274423;28;20507;-65
2023/02/15 02:52:59;;;;;;;31.60;24.23;;;5.80;99.90;;;;;;6274361;28;20604;-64
2023/02/15 02:56:07;;;;;;;37.50;23.37;;;5.90;99.90;;;;;;6274726;28;20466;-65
2023/02/15 02:59:17;;;;;;;35.00;23.97;;;5.80;99.90;;;;;;6270044;28;20466;-65
2023/02/15 03:02:24;;;;;;;38.80;24.20;;;5.80;99.90;;;;;;6274947;28;20493;-64
2023/02/15 03:05:31;;;;;;;35.40;24.23;;;5.80;99.90;;;;;;6274520;28;20472;-64
2023/02/15 03:08:39;;;;;;;37.27;24.03;;;5.70;99.90;;;;;;6274178;28;20620;-64
2023/02/15 03:11:44;;;;;;;34.70;24.33;;;5.70;99.90;;;;;;6274253;28;20489;-64
2023/02/15 03:14:50;;;;;;;37.73;24.10;;;5.70;99.90;;;;;;6274284;28;20802;-64
2023/02/15 03:17:57;;;;;;;38.17;25.33;;;5.60;99.90;;;;;;6274234;28;20473;-64
2023/02/15 03:21:03;;;;;;;41.27;25.60;;;5.60;99.90;;;;;;6274065;28;20477;-64
2023/02/15 03:24:10;;;;;;;38.77;25.40;;;5.60;99.90;;;;;;6274407;28;20485;-64
2023/02/15 03:27:17;;;;;;;32.33;23.73;;;5.60;99.90;;;;;;6277726;28;20466;-64
2023/02/15 03:30:22;;;;;;;35.43;23.63;;;5.50;99.90;;;;;;6274280;28;20961;-64
2023/02/15 03:33:28;;;;;;;35.50;22.87;;;5.60;99.90;;;;;;6273989;28;20474;-64
2023/02/15 03:36:42;;;;;;;40.50;25.40;;;5.60;99.90;;;;;;6274290;28;20843;-64
2023/02/15 03:39:51;;;;;;;37.67;25.87;;;5.60;99.90;;;;;;6273944;28;20782;-64
2023/02/15 03:43:01;;;;;;;33.03;24.10;;;5.60;99.90;;;;;;6273820;28;20493;-64
2023/02/15 03:46:09;;;;;;;32.07;23.17;;;5.60;99.90;;;;;;6273753;28;20483;-65
2023/02/15 03:49:17;;;;;;;35.90;25.70;;;5.60;99.90;;;;;;6273213;28;20482;-65
2023/02/15 03:52:24;;;;;;;32.63;22.27;;;5.70;99.90;;;;;;6277104;28;20473;-65
2023/02/15 03:55:28;;;;;;;41.30;24.90;;;5.70;99.90;;;;;;6278710;28;20488;-65
2023/02/15 04:02:05;;;;;;;33.30;23.63;;;5.70;99.90;;;;;;6278359;28;20454;-65
2023/02/15 04:05:08;;;;;;;37.83;24.67;;;5.70;99.90;;;;;;6278462;28;20790;-65
2023/02/15 04:08:13;;;;;;;37.23;23.27;;;5.70;99.90;;;;;;6278166;28;20483;-65
2023/02/15 04:11:15;;;;;;;30.00;21.90;;;5.70;99.90;;;;;;6278120;28;20977;-64
2023/02/15 04:17:39;;;;;;;29.97;21.43;;;5.00;99.90;;;;;;6278157;28;20470;-65
2023/02/15 04:27:28;;;;;;;33.50;20.80;;;5.10;99.90;;;;;;6277540;28;20473;-64
2023/02/15 04:30:31;;;;;;;33.40;22.93;;;5.20;99.90;;;;;;6277605;28;20769;-65
2023/02/15 04:33:35;;;;;;;33.90;23.00;;;5.30;99.90;;;;;;6278034;28;20950;-64
2023/02/15 04:36:38;;;;;;;34.40;24.00;;;5.40;99.90;;;;;;6277884;28;20774;-64
2023/02/15 04:39:43;;;;;;;33.00;21.87;;;5.40;99.90;;;;;;6278041;28;20484;-64
2023/02/15 04:42:48;;;;;;;40.90;23.63;;;5.50;99.90;;;;;;6277286;28;20474;-65
2023/02/15 04:45:52;;;;;;;36.90;22.10;;;5.50;99.90;;;;;;6277896;28;20481;-65
2023/02/15 04:48:56;;;;;;;31.07;20.50;;;5.50;99.90;;;;;;6277703;28;20482;-65
2023/02/15 04:51:59;;;;;;;30.43;20.20;;;5.50;99.90;;;;;;6277784;28;20469;-64
2023/02/15 04:55:04;;;;;;;29.73;20.50;;;5.50;99.90;;;;;;6277606;28;20473;-64
2023/02/15 04:58:08;;;;;;;31.57;21.53;;;5.60;99.90;;;;;;6277529;28;20777;-64
2023/02/15 05:01:11;;;;;;;30.23;20.50;;;5.70;99.90;;;;;;6276746;28;20536;-64
2023/02/15 05:04:14;;;;;;;27.73;19.20;;;5.70;99.90;;;;;;6276978;28;20486;-65
2023/02/15 05:07:20;;;;;;;29.60;21.33;;;5.80;99.90;;;;;;6277200;28;20473;-65
2023/02/15 05:10:24;;;;;;;28.77;19.80;;;5.80;99.90;;;;;;6268160;28;20496;-65
2023/02/15 05:13:27;;;;;;;32.60;21.07;;;5.80;99.90;;;;;;6276892;28;20952;-64
2023/02/15 05:16:30;;;;;;;31.10;19.50;;;5.80;99.90;;;;;;6276910;28;20462;-65
2023/02/15 05:19:34;;;;;;;28.23;19.80;;;5.90;99.90;;;;;;6276497;28;20557;-65
2023/02/15 05:22:37;;;;;;;28.57;20.37;;;5.80;99.90;;;;;;6276639;28;20821;-64
2023/02/15 05:29:02;;;;;;;28.70;20.13;;;5.80;99.90;;;;;;6251805;28;20482;-65
2023/02/15 05:32:05;;;;;;;29.10;20.83;;;5.80;99.90;;;;;;6251528;28;20840;-65
2023/02/15 05:35:14;;;;;;;34.13;21.07;;;5.70;99.90;;;;;;6251848;28;20541;-65
2023/02/15 05:38:17;;;;;;;30.03;20.33;;;5.80;99.90;;;;;;6252060;28;20479;-65
2023/02/15 05:41:22;;;;;;;28.03;20.37;;;5.80;99.90;;;;;;6252447;28;20463;-65
2023/02/15 05:44:25;;;;;;;30.07;18.03;;;5.80;99.90;;;;;;6268617;28;20478;-65
2023/02/15 05:47:28;;;;;;;31.33;23.63;;;5.70;99.90;;;;;;6276521;28;20470;-65
2023/02/15 05:50:32;;;;;;;32.90;19.67;;;5.60;99.90;;;;;;6276091;28;20481;-65
2023/02/15 05:53:37;;;;;;;26.00;18.70;;;5.60;99.90;;;;;;6275878;28;20474;-64
2023/02/15 05:56:41;;;;;;;26.43;19.00;;;5.60;99.90;;;;;;6276192;28;20462;-64
2023/02/15 05:59:45;;;;;;;27.53;21.17;;;5.50;99.90;;;;;;6275512;28;20478;-64
2023/02/15 06:02:48;;;;;;;26.90;19.70;;;5.40;99.90;;;;;;6275638;28;20466;-64
2023/02/15 06:05:51;;;;;;;28.03;19.43;;;5.50;99.90;;;;;;6274656;28;20980;-65
2023/02/15 06:08:54;;;;;;;30.30;19.27;;;5.40;99.90;;;;;;6274887;28;20496;-64
2023/02/15 06:11:59;;;;;;;26.23;19.43;;;5.40;99.90;;;;;;6270363;28;20481;-64
2023/02/15 06:15:02;;;;;;;27.30;18.27;;;5.40;99.90;;;;;;6273813;28;20485;-64
2023/02/15 06:18:05;;;;;;;29.30;19.47;;;5.40;99.90;;;;;;6274961;28;20477;-64
2023/02/15 06:21:08;;;;;;;26.93;18.27;;;5.50;99.90;;;;;;6274952;28;20481;-66
2023/02/15 06:24:12;;;;;;;27.73;19.83;;;5.50;99.90;;;;;;6275330;28;20485;-66
2023/02/15 06:27:16;;;;;;;24.70;19.10;;;5.50;99.90;;;;;;6277979;28;20474;-66
2023/02/15 06:30:20;;;;;;;28.70;19.10;;;5.50;99.90;;;;;;6287416;28;20486;-66
2023/02/15 06:33:24;;;;;;;29.57;19.87;;;5.50;99.90;;;;;;6275936;28;20524;-66
2023/02/15 06:36:27;;;;;;;29.40;18.83;;;5.50;99.90;;;;;;6275460;28;20470;-66
2023/02/15 06:39:30;;;;;;;27.27;19.80;;;5.50;99.90;;;;;;6274338;28;20485;-66
2023/02/15 06:42:35;;;;;;;34.17;23.23;;;5.50;99.90;;;;;;6274671;28;20504;-66
2023/02/15 06:45:38;;;;;;;39.13;26.40;;;5.40;99.90;;;;;;6274844;28;20486;-66
2023/02/15 06:48:41;;;;;;;30.90;23.30;;;5.30;99.90;;;;;;6275077;28;20478;-67
2023/02/15 06:51:45;;;;;;;29.60;21.30;;;5.30;99.90;;;;;;6274675;28;20470;-64
2023/02/15 06:54:48;;;;;;;29.93;22.10;;;5.30;99.90;;;;;;6274465;28;20798;-64
2023/02/15 06:57:52;;;;;;;28.63;19.47;;;5.30;99.90;;;;;;6274447;28;20473;-64
2023/02/15 07:00:55;;;;;;;36.53;22.20;;;5.30;99.90;;;;;;6274906;28;20474;-64
2023/02/15 07:03:59;;;;;;;28.20;20.43;;;5.30;99.90;;;;;;6273902;28;20466;-64
2023/02/15 07:07:02;;;;;;;32.77;21.73;;;5.40;99.90;;;;;;6274727;28;20538;-65
2023/02/15 07:10:06;;;;;;;35.17;22.03;;;5.40;99.90;;;;;;6274218;28;20486;-64
2023/02/15 07:13:11;;;;;;;35.73;24.87;;;5.30;99.90;;;;;;6273950;28;20477;-64
2023/02/15 07:16:15;;;;;;;35.70;24.40;;;5.30;99.90;;;;;;6269747;28;20478;-64
2023/02/15 07:19:18;;;;;;;36.00;24.40;;;5.40;99.90;;;;;;6273781;28;20473;-65
2023/02/15 07:22:21;;;;;;;31.73;22.57;;;5.40;99.90;;;;;;6274047;28;20762;-64
2023/02/15 07:25:24;;;;;;;30.00;21.40;;;5.40;99.90;;;;;;6273918;28;20481;-66
2023/02/15 07:28:29;;;;;;;34.23;23.87;;;5.40;99.90;;;;;;6274409;28;20481;-65
2023/02/15 07:31:33;;;;;;;33.27;24.43;;;5.50;99.90;;;;;;6274260;28;20969;-65
2023/02/15 07:34:36;;;;;;;32.23;23.60;;;5.40;99.90;;;;;;6273726;28;20474;-65
2023/02/15 07:37:39;;;;;;;31.67;22.27;;;5.40;99.90;;;;;;6273491;28;20435;-65
2023/02/15 07:40:43;;;;;;;32.80;23.90;;;5.40;99.90;;;;;;6273762;28;20473;-65
2023/02/15 07:43:47;;;;;;;34.70;22.80;;;5.40;99.90;;;;;;6274099;28;20446;-66
2023/02/15 07:46:50;;;;;;;37.03;22.93;;;5.40;99.90;;;;;;6274038;28;20473;-65
2023/02/15 07:49:54;;;;;;;33.87;23.77;;;5.50;99.90;;;;;;6273561;28;20481;-65
2023/02/15 07:52:57;;;;;;;37.17;22.33;;;5.50;99.90;;;;;;6273955;28;20910;-65
2023/02/15 07:56:00;;;;;;;36.67;22.97;;;5.50;99.90;;;;;;6274242;28;20461;-65
2023/02/15 07:59:05;;;;;;;31.10;22.60;;;5.50;99.90;;;;;;6273859;28;20474;-65
2023/02/15 08:02:11;;;;;;;35.33;24.17;;;5.60;99.90;;;;;;6274383;28;20972;-65
2023/02/15 08:05:16;;;;;;;33.70;22.53;;;5.60;99.90;;;;;;6274418;28;20466;-65
2023/02/15 08:08:30;;;;;;;37.47;24.90;;;5.60;99.90;;;;;;6273796;28;20481;-65
2023/02/15 08:11:36;;;;;;;36.57;25.00;;;5.60;99.90;;;;;;6273993;28;20474;-65
2023/02/15 08:14:40;;;;;;;31.93;24.00;;;5.70;99.90;;;;;;6274219;28;20579;-65
2023/02/15 08:17:44;;;;;;;39.47;27.93;;;5.70;99.90;;;;;;6274100;28;20470;-65
2023/02/15 08:20:50;;;;;;;36.90;24.70;;;5.70;99.90;;;;;;6281998;28;20571;-64
2023/02/15 08:23:54;;;;;;;33.70;24.10;;;5.70;99.90;;;;;;6287902;28;20470;-65
2023/02/15 08:26:58;;;;;;;42.77;27.20;;;5.80;99.90;;;;;;6283522;28;20508;-65
2023/02/15 08:30:04;;;;;;;36.43;24.63;;;5.80;99.90;;;;;;6274084;28;20797;-65
2023/02/15 08:33:07;;;;;;;35.47;23.40;;;5.80;99.90;;;;;;6273794;28;20489;-65
2023/02/15 08:36:15;;;;;;;35.03;25.00;;;5.80;99.90;;;;;;6274425;28;20553;-65
2023/02/15 08:39:18;;;;;;;38.30;25.40;;;5.90;99.90;;;;;;6278048;28;20816;-65
2023/02/15 08:42:21;;;;;;;40.73;26.87;;;6.00;99.90;;;;;;6278558;28;20538;-65
2023/02/15 08:45:26;;;;;;;40.90;26.80;;;6.20;99.90;;;;;;6278299;28;20472;-65
2023/02/15 08:48:29;;;;;;;33.23;23.97;;;6.20;99.50;;;;;;6277982;28;20974;-65
2023/02/15 08:51:34;;;;;;;33.50;26.20;;;6.20;99.70;;;;;;6277943;28;20480;-65
2023/02/15 08:54:37;;;;;;;35.23;24.63;;;6.30;99.40;;;;;;6278119;28;20497;-65
2023/02/15 08:57:44;;;;;;;40.63;25.70;;;6.40;99.30;;;;;;6277896;28;20466;-65
2023/02/15 09:00:49;;;;;;;35.17;25.13;;;6.50;98.80;;;;;;6277808;28;20478;-65
2023/02/15 09:03:56;;;;;;;37.63;25.10;;;6.50;98.60;;;;;;6277574;28;20472;-65
2023/02/15 09:06:59;;;;;;;33.20;23.03;;;6.60;98.40;;;;;;6277707;28;20489;-65
2023/02/15 09:10:02;;;;;;;38.13;26.43;;;6.70;98.20;;;;;;6277421;28;20480;-65
2023/02/15 09:13:05;;;;;;;32.57;26.40;;;6.80;98.10;;;;;;6277109;28;20805;-65
2023/02/15 09:16:13;;;;;;;35.80;24.77;;;6.80;97.80;;;;;;6277281;28;20780;-65
2023/02/15 09:19:17;;;;;;;37.23;24.20;;;6.90;97.80;;;;;;6277450;28;20621;-65
2023/02/15 09:22:20;;;;;;;38.60;26.43;;;7.00;97.80;;;;;;6276716;28;20481;-65
2023/02/15 09:25:23;;;;;;;39.67;24.93;;;7.10;97.50;;;;;;6276797;28;20480;-65
2023/02/15 09:28:26;;;;;;;33.80;25.10;;;7.10;97.50;;;;;;6276321;28;20474;-65
2023/02/15 09:31:33;;;;;;;35.57;25.40;;;7.10;97.50;;;;;;6276651;28;20479;-65
2023/02/15 09:34:36;;;;;;;35.60;24.13;;;7.30;97.20;;;;;;6276602;28;20838;-65
2023/02/15 09:37:39;;;;;;;42.77;27.20;;;7.40;96.90;;;;;;6276886;28;20576;-65
2023/02/15 09:40:52;;;;;;;32.10;23.87;;;7.60;96.70;;;;;;6276229;28;20470;-65
2023/02/15 09:44:08;;;;;;;35.27;25.17;;;7.80;96.20;;;;;;6276498;28;20736;-65
2023/02/15 09:47:29;;;;;;;39.30;25.07;;;7.60;96.50;;;;;;6276812;28;20474;-65
2023/02/15 09:50:43;;;;;;;34.00;25.73;;;7.80;96.40;;;;;;6276544;28;20501;-65
2023/02/15 09:54:05;;;;;;;37.57;25.47;;;8.20;95.50;;;;;;6276533;28;20490;-65
2023/02/15 09:57:21;;;;;;;33.77;22.93;;;8.30;95.00;;;;;;6276202;28;20481;-65
2023/02/15 10:00:34;;;;;;;34.73;24.50;;;8.50;94.40;;;;;;6275450;28;20840;-65
2023/02/15 10:03:55;;;;;;;40.37;26.83;;;8.40;94.70;;;;;;6276251;28;20482;-65
2023/02/15 10:07:12;;;;;;;40.67;28.03;;;7.90;95.60;;;;;;6275940;28;20976;-65
2023/02/15 10:10:25;;;;;;;36.20;28.07;;;7.90;95.70;;;;;;6283283;28;20497;-65
2023/02/15 10:13:38;;;;;;;38.87;27.10;;;7.70;95.70;;;;;;6276428;28;20474;-65
2023/02/15 10:16:54;;;;;;;39.70;26.90;;;7.50;96.30;;;;;;6275571;28;20439;-65
2023/02/15 10:20:10;;;;;;;38.93;26.00;;;7.40;96.40;;;;;;6275327;28;20496;-65
2023/02/15 10:23:32;;;;;;;36.33;26.27;;;7.40;96.90;;;;;;6275539;28;20470;-65
2023/02/15 10:26:42;;;;;;;39.00;25.87;;;7.30;97.10;;;;;;6271175;28;20478;-65
2023/02/15 10:29:52;;;;;;;39.23;26.60;;;7.50;97.20;;;;;;6275513;28;20474;-65
2023/02/15 10:33:02;;;;;;;44.00;27.33;;;7.60;96.70;;;;;;6275464;28;20946;-65
2023/02/15 10:36:19;;;;;;;47.93;27.23;;;7.70;96.60;;;;;;6275069;28;21146;-65
2023/02/15 10:39:29;;;;;;;36.23;26.30;;;7.80;96.60;;;;;;6274706;28;20498;-65
2023/02/15 10:42:47;;;;;;;37.07;26.67;;;7.80;96.10;;;;;;6275114;28;20536;-65
2023/02/15 10:45:59;;;;;;;32.70;25.27;;;7.80;96.70;;;;;;6251053;28;20463;-65
2023/02/15 10:49:24;;;;;;;44.60;26.90;;;7.80;96.10;;;;;;6250968;28;20486;-65
2023/02/15 10:52:40;;;;;;;37.30;26.30;;;7.90;96.00;;;;;;6250103;28;20845;-65
2023/02/15 10:55:52;;;;;;;42.20;27.50;;;7.70;95.90;;;;;;6250630;28;20459;-65
2023/02/15 10:59:11;;;;;;;36.73;23.90;;;7.70;96.50;;;;;;6256584;28;20470;-65
2023/02/15 11:02:24;;;;;;;36.20;26.20;;;8.40;95.70;;;;;;6251975;28;20479;-65
2023/02/15 11:05:48;;;;;;;35.33;25.17;;;9.90;94.10;;;;;;6250083;28;20819;-65
2023/02/15 11:08:58;;;;;;;38.47;27.63;;;11.20;90.80;;;;;;6249794;28;20490;-65
2023/02/15 11:12:02;;;;;;;39.93;26.53;;;11.90;86.90;;;;;;6250150;28;20939;-65
2023/02/15 11:15:16;;;;;;;38.20;26.13;;;12.10;84.10;;;;;;6250571;28;20515;-65
2023/02/15 11:18:27;;;;;;;34.27;26.20;;;11.10;85.10;;;;;;6250681;28;20478;-65
2023/02/15 11:21:36;;;;;;;39.00;26.27;;;10.40;88.00;;;;;;6250467;28;20490;-65
2023/02/15 11:24:44;;;;;;;34.80;25.57;;;11.00;89.10;;;;;;6251033;28;20467;-67
2023/02/15 11:27:50;;;;;;;31.10;24.83;;;14.30;79.00;;;;;;6268377;28;20482;-67
2023/02/15 11:30:56;;;;;;;34.23;25.43;;;15.50;69.40;;;;;;6274720;28;20478;-67
2023/02/15 11:34:04;;;;;;;37.43;26.87;;;16.00;63.90;;;;;;6274795;28;20898;-67
2023/02/15 11:37:13;;;;;;;36.97;26.50;;;16.10;62.20;;;;;;6274192;28;20474;-68
2023/02/15 11:40:22;;;;;;;35.07;27.20;;;16.00;58.70;;;;;;6274405;28;20474;-67
2023/02/15 11:43:32;;;;;;;30.70;25.23;;;15.30;59.60;;;;;;6275399;28;20957;-68
2023/02/15 11:46:35;;;;;;;39.80;28.60;;;17.50;59.30;;;;;;6274247;28;20474;-67
2023/02/15 11:49:39;;;;;;;30.00;26.43;;;20.10;50.30;;;;;;6273505;28;20231;-67
2023/02/15 11:52:42;;;;;;;31.40;28.10;;;21.10;45.20;;;;;;6273971;28;20231;-64
2023/02/15 11:55:50;;;;;;;31.50;28.10;;;22.80;42.00;;;;;;6274067;28;20658;-64
2023/02/15 11:58:58;;;;;;;29.73;26.63;;;25.00;35.10;;;;;;6274565;28;20219;-65
2023/02/15 12:02:01;;;;;;;32.60;28.40;;;23.50;35.00;;;;;;6274390;28;20192;-65
2023/02/15 12:05:10;;;;;;;33.90;29.53;;;25.50;33.80;;;;;;6273444;28;20237;-65
2023/02/15 12:08:20;;;;;;;36.67;31.87;;;27.60;29.70;;;;;;6273935;28;20227;-65
2023/02/15 12:11:33;;;;;;;32.63;29.20;;;30.10;26.90;;;;;;6274423;28;20233;-65
2023/02/15 12:14:49;;;;;;;35.77;32.17;;;32.00;24.00;;;;;;6278620;28;20227;-65
2023/02/15 12:17:55;;;;;;;33.40;30.27;;;32.10;22.60;;;;;;6278494;28;20231;-65
2023/02/15 12:21:00;;;;;;;35.22;31.63;;;32.30;22.00;;;;;;6278514;28;20226;-65
2023/02/15 12:24:17;;;;;;;37.70;33.83;;;33.20;21.10;;;;;;6278199;28;20231;-65
2023/02/15 12:27:25;;;;;;;35.20;31.70;;;34.00;20.30;;;;;;6277883;28;20251;-66
2023/02/15 12:30:33;;;;;;;34.90;31.60;;;33.50;20.10;;;;;;6277683;28;20231;-65
2023/02/15 12:33:40;;;;;;;36.35;32.40;;;32.70;20.20;;;;;;6278231;28;20231;-66
2023/02/15 12:36:47;;;;;;;35.35;31.73;;;32.70;20.20;;;;;;6278222;28;20227;-66
2023/02/15 12:39:55;;;;;;;34.78;31.33;;;33.10;20.20;;;;;;6278499;28;20253;-66
2023/02/15 12:43:07;;;;;;;35.08;31.65;;;33.40;19.70;;;;;;6277683;28;20609;-66
2023/02/15 12:46:21;;;;;;;34.88;31.50;;;32.90;20.00;;;;;;6278174;28;20651;-66
2023/02/15 12:49:24;;;;;;;35.17;31.77;;;33.40;19.40;;;;;;6277194;28;20674;-66
2023/02/15 12:52:27;;;;;;;35.03;31.35;;;33.10;19.60;;;;;;6277195;28;20234;-65
2023/02/15 12:55:31;;;;;;;35.60;31.80;;;32.60;19.60;;;;;;6277792;28;20317;-65
2023/02/15 12:58:37;;;;;;;32.40;28.95;;;32.40;20.00;;;;;;6277819;28;20322;-65
2023/02/15 13:01:41;;;;;;;33.75;30.35;;;32.50;19.90;;;;;;6277685;28;20570;-65
2023/02/15 13:04:49;;;;;;;34.00;30.42;;;32.90;19.60;;;;;;6293629;28;20195;-65
2023/02/15 13:07:57;;;;;;;35.63;32.03;;;32.10;19.60;;;;;;6305327;28;20168;-65
2023/02/15 13:11:03;;;;;;;33.93;30.50;;;30.70;20.80;;;;;;6279210;28;20200;-65
2023/02/15 13:14:18;;;;;;;35.20;31.50;;;29.60;21.50;;;;;;6277717;28;20227;-65
2023/02/15 13:17:29;;;;;;;34.90;31.10;;;28.60;22.20;;;;;;6277256;28;20231;-65
2023/02/15 13:20:36;;;;;;;36.83;31.57;;;27.00;23.70;;;;;;6276776;28;20321;-65
2023/02/15 13:23:41;;;;;;;39.70;30.57;;;27.50;23.40;;;;;;6276016;28;20563;-65
2023/02/15 13:26:48;;;;;;;33.83;30.10;;;27.10;23.80;;;;;;6276626;28;20234;-65
2023/02/15 13:29:57;;;;;;;31.77;28.47;;;28.30;23.50;;;;;;6276143;28;20551;-65
2023/02/15 13:33:04;;;;;;;33.90;30.00;;;29.00;22.90;;;;;;6276514;28;20362;-65
2023/02/15 13:36:17;;;;;;;36.10;30.47;;;29.10;22.10;;;;;;6276646;28;20570;-66
2023/02/15 13:39:28;;;;;;;34.97;30.97;;;28.60;22.70;;;;;;6275860;28;20712;-66
2023/02/15 13:42:37;;;;;;;35.63;31.87;;;28.80;22.70;;;;;;6276596;28;20231;-66
2023/02/15 13:45:57;;;;;;;37.57;30.80;;;28.80;22.60;;;;;;6276611;28;20580;-66
2023/02/15 13:49:16;;;;;;;34.27;30.57;;;27.70;23.60;;;;;;6275762;28;20238;-66
2023/02/15 13:52:22;;;;;;;37.93;31.93;;;27.90;23.40;;;;;;6276003;28;20227;-65
2023/02/15 13:55:37;;;;;;;33.73;30.20;;;27.50;23.90;;;;;;6275827;28;20227;-65
2023/02/15 13:59:10;;;;;;;36.60;32.63;;;27.00;24.10;;;;;;6275863;28;20231;-65
2023/02/15 14:02:43;;;;;;;37.90;31.53;;;26.80;24.40;;;;;;6275287;28;20239;-66
2023/02/15 14:06:20;;;;;;;37.87;30.50;;;25.90;24.90;;;;;;6263903;28;20234;-66
2023/02/15 14:09:37;;;;;;;36.33;31.10;;;25.50;25.40;;;;;;6265767;28;20236;-65
2023/02/15 14:12:53;;;;;;;32.37;28.50;;;23.20;27.40;;;;;;6275616;28;20664;-65
2023/02/15 14:16:04;;;;;;;34.23;28.10;;;21.70;29.20;;;;;;6275187;28;20238;-65
2023/02/15 14:19:19;;;;;;;37.33;27.90;;;18.70;32.60;;;;;;6275374;28;20239;-65
2023/02/15 14:22:31;;;;;;;38.83;29.00;;;16.90;35.60;;;;;;6275069;28;20228;-65
2023/02/15 14:25:42;;;;;;;35.93;27.33;;;15.70;38.10;;;;;;6275765;28;20978;-65
2023/02/15 14:28:57;;;;;;;40.90;27.63;;;14.70;40.10;;;;;;6250540;28;20489;-65
2023/02/15 14:32:11;;;;;;;41.43;27.30;;;13.70;42.60;;;;;;6251689;28;20429;-65
2023/02/15 14:35:19;;;;;;;35.00;26.20;;;13.00;44.30;;;;;;6250441;28;20521;-65
2023/02/15 14:38:32;;;;;;;34.90;26.13;;;12.10;46.90;;;;;;6250730;28;20471;-65
2023/02/15 14:41:41;;;;;;;37.07;26.80;;;11.50;48.70;;;;;;6251125;28;20471;-65
2023/02/15 14:44:50;;;;;;;39.00;26.70;;;11.20;50.40;;;;;;6267107;28;20474;-65
2023/02/15 14:48:02;;;;;;;39.50;27.93;;;10.70;52.10;;;;;;6275613;28;20467;-65
2023/02/15 14:51:07;;;;;;;38.30;25.53;;;10.40;54.00;;;;;;6275340;28;20479;-66
2023/02/15 14:54:11;;;;;;;42.90;25.23;;;10.00;56.10;;;;;;6275403;28;20481;-65
2023/02/15 14:57:31;;;;;;;44.00;26.90;;;9.70;58.80;;;;;;6275075;28;20815;-66
2023/02/15 15:00:42;;;;;;;44.77;27.90;;;9.60;60.80;;;;;;6274996;28;20557;-66
2023/02/15 15:03:52;;;;;;;41.57;25.80;;;9.20;64.10;;;;;;6274725;28;20466;-65
2023/02/15 15:07:09;;;;;;;43.97;28.67;;;9.10;66.10;;;;;;6275107;28;21296;-65
2023/02/15 15:10:46;;;;;;;40.50;26.33;;;9.00;68.80;;;;;;6274726;28;20493;-65
2023/02/15 15:13:58;;;;;;;39.70;26.97;;;8.70;72.20;;;;;;6198648;28;20467;-65
2023/02/15 15:17:02;;;;;;;41.77;27.20;;;8.60;74.20;;;;;;6199113;28;20444;-65
2023/02/15 15:20:16;;;;;;;43.23;25.53;;;8.60;75.80;;;;;;6274517;28;20469;-65
2023/02/15 15:23:51;;;;;;;46.93;28.50;;;8.50;78.30;;;;;;6277396;28;20505;-65
2023/02/15 15:27:27;;;;;;;38.90;26.83;;;8.40;80.10;;;;;;6203491;28;20472;-65
2023/02/15 15:31:07;;;;;;;39.97;26.17;;;8.20;82.60;;;;;;6275014;28;20777;-65
2023/02/15 15:34:28;;;;;;;46.93;26.70;;;8.10;85.10;;;;;;6274775;28;20788;-65
2023/02/15 15:38:01;;;;;;;55.97;29.03;;;8.00;86.60;;;;;;6274883;28;20462;-65
2023/02/15 15:41:31;;;;;;;45.20;26.93;;;7.80;88.80;;;;;;6280603;28;20512;-65
2023/02/15 15:45:04;;;;;;;41.20;26.00;;;7.60;90.70;;;;;;6268973;28;20886;-65
2023/02/15 15:48:34;;;;;;;40.07;27.70;;;7.40;91.50;;;;;;6281298;28;20489;-65
2023/02/15 15:51:42;;;;;;;44.07;26.90;;;7.30;92.80;;;;;;6280845;28;20508;-65
2023/02/15 15:54:49;;;;;;;43.30;28.17;;;7.30;93.20;;;;;;6280368;28;20473;-65
2023/02/15 15:57:58;;;;;;;45.17;27.20;;;7.30;93.60;;;;;;6279304;28;20557;-65
2023/02/15 16:01:08;;;;;;;39.70;26.43;;;7.20;94.10;;;;;;6279185;28;20470;-66
2023/02/15 16:04:14;;;;;;;46.53;27.17;;;7.00;94.80;;;;;;6279306;28;20461;-66
2023/02/15 16:07:27;;;;;;;37.57;25.50;;;7.00;95.00;;;;;;6278947;28;20813;-65
2023/02/15 16:10:33;;;;;;;43.33;26.80;;;7.00;95.40;;;;;;6278771;28;20778;-65
2023/02/15 16:13:41;;;;;;;40.83;25.70;;;6.90;95.70;;;;;;6279078;28;20470;-65
2023/02/15 16:16:51;;;;;;;44.10;27.50;;;6.90;95.80;;;;;;6278791;28;20462;-65
2023/02/15 16:20:02;;;;;;;53.43;28.33;;;6.90;96.10;;;;;;6277838;28;21006;-65
2023/02/15 16:23:22;;;;;;;49.57;27.17;;;7.00;96.20;;;;;;6278551;28;20462;-65